sensor_id;sensor_type;location;lat;lon;timestamp;pressure;altitude;pressure_sealevel;temperature;humidity
9738;BME280;4908;47.446;13.900;2023-07-31T00:01:57;92967.50;;;13.66;100.00
9738;BME280;4908;47.446;13.900;2023-07-31T00:04:24;92961.88;;;13.46;100.00
9738;BME280;4908;47.446;13.900;2023-07-31T00:06:53;92964.25;;;13.37;100.00
9738;BME280;4908;47.446;13.900;2023-07-31T00:09:20;92964.19;;;13.44;100.00
9738;BME280;4908;47.446;13.900;2023-07-31T00:11:47;92975.63;;;13.63;100.00
9738;BME280;4908;47.446;13.900;2023-07-31T00:14:14;92974.03;;;13.69;100.00
9738;BME280;4908;47.446;13.900;2023-07-31T00:16:41;92972.56;;;13.57;100.00
9738;BME280;4908;47.446;13.900;2023-07-31T00:19:09;92969.47;;;13.62;100.00
9738;BME280;4908;47.446;13.900;2023-07-31T00:21:36;92967.91;;;13.65;100.00
9738;BME280;4908;47.446;13.900;2023-07-31T00:24:05;92972.88;;;13.70;100.00
9738;BME280;4908;47.446;13.900;2023-07-31T00:26:32;92975.09;;;13.82;100.00
9738;BME280;4908;47.446;13.900;2023-07-31T00:28:59;92967.00;;;13.82;100.00
9738;BME280;4908;47.446;13.900;2023-07-31T00:31:26;92967.03;;;13.78;100.00
9738;BME280;4908;47.446;13.900;2023-07-31T00:33:53;92974.31;;;13.85;100.00
9738;BME280;4908;47.446;13.900;2023-07-31T00:36:20;92981.19;;;13.89;100.00
9738;BME280;4908;47.446;13.900;2023-07-31T00:38:47;92981.63;;;13.84;100.00
9738;BME280;4908;47.446;13.900;2023-07-31T00:41:16;92985.50;;;13.80;100.00
9738;BME280;4908;47.446;13.900;2023-07-31T00:43:43;92987.88;;;13.71;100.00
9738;BME280;4908;47.446;13.900;2023-07-31T00:46:11;92984.06;;;13.65;100.00
9738;BME280;4908;47.446;13.900;2023-07-31T00:48:39;92986.03;;;13.57;100.00
9738;BME280;4908;47.446;13.900;2023-07-31T00:51:07;92987.94;;;13.64;100.00
9738;BME280;4908;47.446;13.900;2023-07-31T00:53:35;92984.88;;;13.58;100.00
9738;BME280;4908;47.446;13.900;2023-07-31T00:56:03;92987.91;;;13.60;100.00
9738;BME280;4908;47.446;13.900;2023-07-31T00:58:32;92982.41;;;13.78;100.00
9738;BME280;4908;47.446;13.900;2023-07-31T01:00:59;92978.22;;;13.77;100.00
9738;BME280;4908;47.446;13.900;2023-07-31T01:03:26;92982.41;;;13.78;100.00
9738;BME280;4908;47.446;13.900;2023-07-31T01:06:03;92985.53;;;13.76;100.00
9738;BME280;4908;47.446;13.900;2023-07-31T01:08:39;92981.97;;;13.90;100.00
9738;BME280;4908;47.446;13.900;2023-07-31T01:11:11;92978.56;;;13.82;100.00
9738;BME280;4908;47.446;13.900;2023-07-31T01:13:42;92974.13;;;13.55;100.00
9738;BME280;4908;47.446;13.900;2023-07-31T01:16:10;92975.69;;;13.48;100.00
9738;BME280;4908;47.446;13.900;2023-07-31T01:18:37;92976.38;;;13.63;100.00
9738;BME280;4908;47.446;13.900;2023-07-31T01:21:16;92970.97;;;13.67;100.00
9738;BME280;4908;47.446;13.900;2023-07-31T01:24:04;92973.25;;;13.68;100.00
9738;BME280;4908;47.446;13.900;2023-07-31T01:26:38;92966.78;;;13.66;100.00
9738;BME280;4908;47.446;13.900;2023-07-31T01:29:11;92970.28;;;13.56;100.00
9738;BME280;4908;47.446;13.900;2023-07-31T01:31:41;92974.91;;;13.55;100.00
9738;BME280;4908;47.446;13.900;2023-07-31T01:34:10;92979.88;;;13.57;100.00
9738;BME280;4908;47.446;13.900;2023-07-31T01:36:38;92974.09;;;13.62;100.00
9738;BME280;4908;47.446;13.900;2023-07-31T01:39:05;92974.91;;;13.55;100.00
9738;BME280;4908;47.446;13.900;2023-07-31T01:41:32;92971.47;;;13.51;100.00
9738;BME280;4908;47.446;13.900;2023-07-31T01:44:01;92966.50;;;13.46;100.00
9738;BME280;4908;47.446;13.900;2023-07-31T01:46:28;92958.09;;;13.40;100.00
9738;BME280;4908;47.446;13.900;2023-07-31T01:48:55;92968.84;;;13.40;100.00
9738;BME280;4908;47.446;13.900;2023-07-31T01:51:22;92961.19;;;13.32;100.00
9738;BME280;4908;47.446;13.900;2023-07-31T01:53:49;92964.63;;;13.39;100.00
9738;BME280;4908;47.446;13.900;2023-07-31T01:56:17;92966.53;;;13.42;100.00
9738;BME280;4908;47.446;13.900;2023-07-31T01:58:44;92956.88;;;13.45;100.00
9738;BME280;4908;47.446;13.900;2023-07-31T02:01:12;92960.34;;;13.45;100.00
9738;BME280;4908;47.446;13.900;2023-07-31T02:03:40;92957.22;;;13.50;100.00
9738;BME280;4908;47.446;13.900;2023-07-31T02:06:07;92959.53;;;13.56;100.00
9738;BME280;4908;47.446;13.900;2023-07-31T02:08:34;92956.81;;;13.59;100.00
9738;BME280;4908;47.446;13.900;2023-07-31T02:11:02;92951.09;;;13.46;100.00
9738;BME280;4908;47.446;13.900;2023-07-31T02:13:29;92955.34;;;13.47;100.00
9738;BME280;4908;47.446;13.900;2023-07-31T02:15:56;92965.28;;;13.58;100.00
9738;BME280;4908;47.446;13.900;2023-07-31T02:18:25;92957.34;;;13.36;100.00
9738;BME280;4908;47.446;13.900;2023-07-31T02:20:52;92956.56;;;13.36;100.00
9738;BME280;4908;47.446;13.900;2023-07-31T02:23:19;92951.31;;;13.15;100.00
9738;BME280;4908;47.446;13.900;2023-07-31T02:25:46;92952.81;;;13.19;100.00
9738;BME280;4908;47.446;13.900;2023-07-31T02:28:14;92938.97;;;13.24;100.00
9738;BME280;4908;47.446;13.900;2023-07-31T02:30:44;92946.59;;;13.29;100.00
9738;BME280;4908;47.446;13.900;2023-07-31T02:33:12;92948.16;;;13.30;100.00
9738;BME280;4908;47.446;13.900;2023-07-31T02:35:40;92945.09;;;13.21;100.00
9738;BME280;4908;47.446;13.900;2023-07-31T02:38:07;92951.25;;;13.25;100.00
9738;BME280;4908;47.446;13.900;2023-07-31T02:40:35;92957.75;;;13.28;100.00
9738;BME280;4908;47.446;13.900;2023-07-31T02:43:02;92958.56;;;13.21;100.00
9738;BME280;4908;47.446;13.900;2023-07-31T02:45:29;92955.88;;;13.18;100.00
9738;BME280;4908;47.446;13.900;2023-07-31T02:47:56;92955.13;;;13.17;100.00
9738;BME280;4908;47.446;13.900;2023-07-31T02:50:23;92946.00;;;12.90;100.00
9738;BME280;4908;47.446;13.900;2023-07-31T02:52:53;92956.38;;;12.95;100.00
9738;BME280;4908;47.446;13.900;2023-07-31T02:55:21;92948.66;;;13.04;100.00
9738;BME280;4908;47.446;13.900;2023-07-31T02:57:48;92949.06;;;12.92;100.00
9738;BME280;4908;47.446;13.900;2023-07-31T03:00:15;92950.28;;;12.84;100.00
9738;BME280;4908;47.446;13.900;2023-07-31T03:02:42;92954.84;;;12.87;100.00
9738;BME280;4908;47.446;13.900;2023-07-31T03:05:09;92953.44;;;12.58;100.00
9738;BME280;4908;47.446;13.900;2023-07-31T03:07:36;92943.03;;;12.67;100.00
9738;BME280;4908;47.446;13.900;2023-07-31T03:10:06;92946.84;;;12.73;100.00
9738;BME280;4908;47.446;13.900;2023-07-31T03:12:33;92950.31;;;12.70;100.00
9738;BME280;4908;47.446;13.900;2023-07-31T03:15:01;92943.81;;;12.64;100.00
9738;BME280;4908;47.446;13.900;2023-07-31T03:17:28;92943.81;;;12.64;100.00
9738;BME280;4908;47.446;13.900;2023-07-31T03:19:55;92941.88;;;12.68;100.00
9738;BME280;4908;47.446;13.900;2023-07-31T03:22:22;92949.22;;;12.50;100.00
9738;BME280;4908;47.446;13.900;2023-07-31T03:24:49;92946.19;;;12.41;100.00
9738;BME280;4908;47.446;13.900;2023-07-31T03:27:18;92943.91;;;12.29;100.00
9738;BME280;4908;47.446;13.900;2023-07-31T03:29:45;92942.00;;;12.22;100.00
9738;BME280;4908;47.446;13.900;2023-07-31T03:32:12;92950.03;;;12.22;100.00
9738;BME280;4908;47.446;13.900;2023-07-31T03:34:40;92961.19;;;12.28;100.00
9738;BME280;4908;47.446;13.900;2023-07-31T03:37:07;92963.50;;;12.26;100.00
9738;BME280;4908;47.446;13.900;2023-07-31T03:39:34;92963.84;;;12.35;100.00
9738;BME280;4908;47.446;13.900;2023-07-31T03:42:02;92961.53;;;12.37;100.00
9738;BME280;4908;47.446;13.900;2023-07-31T03:44:31;92961.19;;;12.14;100.00
9738;BME280;4908;47.446;13.900;2023-07-31T03:46:58;92963.50;;;12.12;100.00
9738;BME280;4908;47.446;13.900;2023-07-31T03:49:25;92956.19;;;12.33;100.00
9738;BME280;4908;47.446;13.900;2023-07-31T03:51:53;92961.56;;;12.33;100.00
9738;BME280;4908;47.446;13.900;2023-07-31T03:54:20;92954.63;;;12.36;100.00
9738;BME280;4908;47.446;13.900;2023-07-31T03:56:47;92959.22;;;12.46;100.00
9738;BME280;4908;47.446;13.900;2023-07-31T03:59:14;92955.41;;;12.33;100.00
9738;BME280;4908;47.446;13.900;2023-07-31T04:01:43;92965.38;;;12.43;100.00
9738;BME280;4908;47.446;13.900;2023-07-31T04:04:10;92967.66;;;12.55;100.00
9738;BME280;4908;47.446;13.900;2023-07-31T04:06:37;92959.19;;;12.60;100.00
9738;BME280;4908;47.446;13.900;2023-07-31T04:09:05;92959.16;;;12.67;100.00
9738;BME280;4908;47.446;13.900;2023-07-31T04:11:32;92961.47;;;12.69;100.00
9738;BME280;4908;47.446;13.900;2023-07-31T04:13:59;92959.88;;;12.75;100.00
9738;BME280;4908;47.446;13.900;2023-07-31T04:16:26;92969.84;;;12.81;100.00
9738;BME280;4908;47.446;13.900;2023-07-31T04:18:55;92974.47;;;12.84;100.00
9738;BME280;4908;47.446;13.900;2023-07-31T04:21:22;92969.81;;;12.88;100.00
9738;BME280;4908;47.446;13.900;2023-07-31T04:23:49;92970.97;;;12.87;100.00
9738;BME280;4908;47.446;13.900;2023-07-31T04:26:16;92972.91;;;12.83;100.00
9738;BME280;4908;47.446;13.900;2023-07-31T04:28:43;92984.41;;;12.87;100.00
9738;BME280;4908;47.446;13.900;2023-07-31T04:31:10;92979.75;;;12.98;100.00
9738;BME280;4908;47.446;13.900;2023-07-31T04:33:37;92981.31;;;12.99;100.00
9738;BME280;4908;47.446;13.900;2023-07-31T04:36:05;92976.78;;;12.82;100.00
9738;BME280;4908;47.446;13.900;2023-07-31T04:38:32;92974.09;;;12.75;100.00
9738;BME280;4908;47.446;13.900;2023-07-31T04:40:59;92972.91;;;12.83;100.00
9738;BME280;4908;47.446;13.900;2023-07-31T04:43:26;92978.28;;;12.83;100.00
9738;BME280;4908;47.446;13.900;2023-07-31T04:45:53;92970.56;;;12.96;100.00
9738;BME280;4908;47.446;13.900;2023-07-31T04:48:20;92972.84;;;13.04;100.00
9738;BME280;4908;47.446;13.900;2023-07-31T04:50:47;92969.72;;;13.16;100.00
9738;BME280;4908;47.446;13.900;2023-07-31T04:53:15;92975.06;;;13.30;100.00
9738;BME280;4908;47.446;13.900;2023-07-31T04:55:42;92971.19;;;13.31;100.00
9738;BME280;4908;47.446;13.900;2023-07-31T04:58:10;92971.13;;;13.45;100.00
9738;BME280;4908;47.446;13.900;2023-07-31T05:00:37;92972.22;;;13.52;100.00
9738;BME280;4908;47.446;13.900;2023-07-31T05:03:04;92970.66;;;13.58;100.00
9738;BME280;4908;47.446;13.900;2023-07-31T05:05:32;92971.72;;;13.71;100.00
9738;BME280;4908;47.446;13.900;2023-07-31T05:07:59;92974.78;;;13.73;100.00
9738;BME280;4908;47.446;13.900;2023-07-31T05:10:28;92975.53;;;13.77;100.00
9738;BME280;4908;47.446;13.900;2023-07-31T05:12:55;92977.84;;;13.75;100.00
9738;BME280;4908;47.446;13.900;2023-07-31T05:15:22;92978.19;;;13.80;100.00
9738;BME280;4908;47.446;13.900;2023-07-31T05:17:49;92977.03;;;13.78;100.00
9738;BME280;4908;47.446;13.900;2023-07-31T05:20:16;92971.66;;;13.78;100.00
9738;BME280;4908;47.446;13.900;2023-07-31T05:22:43;92978.91;;;13.88;100.00
9738;BME280;4908;47.446;13.900;2023-07-31T05:25:10;92975.00;;;13.96;100.00
9738;BME280;4908;47.446;13.900;2023-07-31T05:27:38;92972.22;;;14.03;100.00
9738;BME280;4908;47.446;13.900;2023-07-31T05:30:06;92970.72;;;14.02;100.00
9738;BME280;4908;47.446;13.900;2023-07-31T05:32:33;92973.41;;;14.02;100.00
9738;BME280;4908;47.446;13.900;2023-07-31T05:35:00;92980.75;;;13.98;100.00
9738;BME280;4908;47.446;13.900;2023-07-31T05:37:27;92982.19;;;14.09;100.00
9738;BME280;4908;47.446;13.900;2023-07-31T05:39:54;92976.78;;;14.13;100.00
9738;BME280;4908;47.446;13.900;2023-07-31T05:42:21;92974.16;;;14.06;100.00
9738;BME280;4908;47.446;13.900;2023-07-31T05:44:50;92975.25;;;14.12;100.00
9738;BME280;4908;47.446;13.900;2023-07-31T05:47:17;92983.63;;;14.21;100.00
9738;BME280;4908;47.446;13.900;2023-07-31T05:49:44;92981.75;;;14.18;100.00
9738;BME280;4908;47.446;13.900;2023-07-31T05:52:11;92971.31;;;14.23;100.00
9738;BME280;4908;47.446;13.900;2023-07-31T05:54:38;92978.31;;;14.14;100.00
9738;BME280;4908;47.446;13.900;2023-07-31T05:57:05;92969.84;;;14.15;100.00
9738;BME280;4908;47.446;13.900;2023-07-31T05:59:32;92966.84;;;14.06;100.00
9738;BME280;4908;47.446;13.900;2023-07-31T06:02:00;92965.88;;;14.27;100.00
9738;BME280;4908;47.446;13.900;2023-07-31T06:04:28;92974.97;;;14.47;100.00
9738;BME280;4908;47.446;13.900;2023-07-31T06:06:54;92972.63;;;14.49;100.00
9738;BME280;4908;47.446;13.900;2023-07-31T06:09:22;92973.25;;;14.64;100.00
9738;BME280;4908;47.446;13.900;2023-07-31T06:11:49;92969.31;;;14.72;100.00
9738;BME280;4908;47.446;13.900;2023-07-31T06:14:16;92965.44;;;14.76;100.00
9738;BME280;4908;47.446;13.900;2023-07-31T06:16:43;92959.16;;;14.86;100.00
9738;BME280;4908;47.446;13.900;2023-07-31T06:19:12;92961.41;;;14.91;100.00
9738;BME280;4908;47.446;13.900;2023-07-31T06:21:39;92954.06;;;14.92;100.00
9738;BME280;4908;47.446;13.900;2023-07-31T06:24:08;92956.84;;;14.85;100.00
9738;BME280;4908;47.446;13.900;2023-07-31T06:26:35;92953.75;;;14.86;100.00
9738;BME280;4908;47.446;13.900;2023-07-31T06:29:02;92947.75;;;15.05;100.00
9738;BME280;4908;47.446;13.900;2023-07-31T06:31:29;92948.00;;;15.14;100.00
9738;BME280;4908;47.446;13.900;2023-07-31T06:33:56;92947.84;;;15.28;100.00
9738;BME280;4908;47.446;13.900;2023-07-31T06:36:24;92946.97;;;15.35;100.00
9738;BME280;4908;47.446;13.900;2023-07-31T06:38:52;92944.50;;;15.48;100.00
9738;BME280;4908;47.446;13.900;2023-07-31T06:41:19;92944.38;;;15.58;100.00
9738;BME280;4908;47.446;13.900;2023-07-31T06:43:46;92948.16;;;15.61;100.00
9738;BME280;4908;47.446;13.900;2023-07-31T06:46:13;92949.50;;;15.76;100.00
9738;BME280;4908;47.446;13.900;2023-07-31T06:48:40;92943.63;;;15.81;100.00
9738;BME280;4908;47.446;13.900;2023-07-31T06:51:07;92939.19;;;15.94;100.00
9738;BME280;4908;47.446;13.900;2023-07-31T06:53:35;92941.38;;;16.02;100.00
9738;BME280;4908;47.446;13.900;2023-07-31T06:56:03;92941.97;;;16.13;100.00
9738;BME280;4908;47.446;13.900;2023-07-31T06:58:30;92937.97;;;16.22;100.00
9738;BME280;4908;47.446;13.900;2023-07-31T07:00:57;92937.31;;;16.14;100.00
9738;BME280;4908;47.446;13.900;2023-07-31T07:03:24;92946.44;;;16.24;100.00
9738;BME280;4908;47.446;13.900;2023-07-31T07:05:51;92939.31;;;16.33;100.00
9738;BME280;4908;47.446;13.900;2023-07-31T07:08:18;92931.34;;;16.49;100.00
9738;BME280;4908;47.446;13.900;2023-07-31T07:10:46;92925.03;;;16.56;100.00
9738;BME280;4908;47.446;13.900;2023-07-31T07:13:13;92926.00;;;16.65;100.00
9738;BME280;4908;47.446;13.900;2023-07-31T07:15:40;92925.28;;;16.84;100.00
9738;BME280;4908;47.446;13.900;2023-07-31T07:18:07;92916.72;;;16.86;100.00
9738;BME280;4908;47.446;13.900;2023-07-31T07:20:36;92926.94;;;16.78;100.00
9738;BME280;4908;47.446;13.900;2023-07-31T07:23:03;92924.84;;;16.86;100.00
9738;BME280;4908;47.446;13.900;2023-07-31T07:25:30;92921.72;;;17.07;100.00
9738;BME280;4908;47.446;13.900;2023-07-31T07:27:58;92918.94;;;16.91;100.00
9738;BME280;4908;47.446;13.900;2023-07-31T07:30:25;92915.53;;;17.07;100.00
9738;BME280;4908;47.446;13.900;2023-07-31T07:32:52;92903.81;;;17.13;100.00
9738;BME280;4908;47.446;13.900;2023-07-31T07:35:19;92904.84;;;17.19;100.00
9738;BME280;4908;47.446;13.900;2023-07-31T07:37:48;92904.50;;;17.17;100.00
9738;BME280;4908;47.446;13.900;2023-07-31T07:40:15;92906.50;;;17.33;100.00
9738;BME280;4908;47.446;13.900;2023-07-31T07:42:43;92902.84;;;17.39;100.00
9738;BME280;4908;47.446;13.900;2023-07-31T07:45:11;92898.41;;;17.49;100.00
9738;BME280;4908;47.446;13.900;2023-07-31T07:47:40;92900.88;;;17.59;100.00
9738;BME280;4908;47.446;13.900;2023-07-31T07:50:08;92900.91;;;17.75;100.00
9738;BME280;4908;47.446;13.900;2023-07-31T07:52:35;92900.56;;;17.89;100.00
9738;BME280;4908;47.446;13.900;2023-07-31T07:55:03;92904.38;;;18.08;100.00
9738;BME280;4908;47.446;13.900;2023-07-31T07:57:30;92904.53;;;18.17;100.00
9738;BME280;4908;47.446;13.900;2023-07-31T07:59:57;92901.81;;;18.33;100.00
9738;BME280;4908;47.446;13.900;2023-07-31T08:02:25;92894.09;;;18.32;100.00
9738;BME280;4908;47.446;13.900;2023-07-31T08:04:52;92900.72;;;18.47;100.00
9738;BME280;4908;47.446;13.900;2023-07-31T08:07:19;92888.59;;;18.51;100.00
9738;BME280;4908;47.446;13.900;2023-07-31T08:09:46;92887.97;;;18.60;100.00
9738;BME280;4908;47.446;13.900;2023-07-31T08:12:13;92883.09;;;18.67;100.00
9738;BME280;4908;47.446;13.900;2023-07-31T08:14:40;92878.16;;;18.78;100.00
9738;BME280;4908;47.446;13.900;2023-07-31T08:17:07;92872.75;;;18.78;100.00
9738;BME280;4908;47.446;13.900;2023-07-31T08:19:36;92868.88;;;19.05;100.00
9738;BME280;4908;47.446;13.900;2023-07-31T08:22:03;92870.38;;;18.93;100.00
9738;BME280;4908;47.446;13.900;2023-07-31T08:24:30;92872.53;;;18.86;100.00
9738;BME280;4908;47.446;13.900;2023-07-31T08:26:57;92871.94;;;19.07;100.00
9738;BME280;4908;47.446;13.900;2023-07-31T08:29:25;92868.09;;;19.33;100.00
9738;BME280;4908;47.446;13.900;2023-07-31T08:31:52;92863.63;;;19.51;100.00
9738;BME280;4908;47.446;13.900;2023-07-31T08:34:19;92867.66;;;19.59;100.00
9738;BME280;4908;47.446;13.900;2023-07-31T08:36:47;92866.91;;;19.72;100.00
9738;BME280;4908;47.446;13.900;2023-07-31T08:39:14;92860.69;;;19.71;100.00
9738;BME280;4908;47.446;13.900;2023-07-31T08:41:41;92857.34;;;19.80;100.00
9738;BME280;4908;47.446;13.900;2023-07-31T08:44:09;92855.69;;;19.82;100.00
9738;BME280;4908;47.446;13.900;2023-07-31T08:46:37;92843.19;;;19.85;100.00
9738;BME280;4908;47.446;13.900;2023-07-31T08:49:05;92844.72;;;19.86;100.00
9738;BME280;4908;47.446;13.900;2023-07-31T08:51:33;92844.72;;;19.86;100.00
9738;BME280;4908;47.446;13.900;2023-07-31T08:54:02;92841.09;;;20.01;100.00
9738;BME280;4908;47.446;13.900;2023-07-31T08:56:31;92830.31;;;20.10;100.00
9738;BME280;4908;47.446;13.900;2023-07-31T08:58:59;92834.84;;;20.13;100.00
9738;BME280;4908;47.446;13.900;2023-07-31T09:01:30;92825.63;;;20.23;100.00
9738;BME280;4908;47.446;13.900;2023-07-31T09:04:01;92824.75;;;20.48;100.00
9738;BME280;4908;47.446;13.900;2023-07-31T09:06:31;92820.22;;;20.67;100.00
9738;BME280;4908;47.446;13.900;2023-07-31T09:08:59;92824.13;;;20.66;100.00
9738;BME280;4908;47.446;13.900;2023-07-31T09:11:27;92820.34;;;20.63;100.00
9738;BME280;4908;47.446;13.900;2023-07-31T09:13:56;92817.44;;;20.58;100.00
9738;BME280;4908;47.446;13.900;2023-07-31T09:16:27;92812.88;;;20.76;100.00
9738;BME280;4908;47.446;13.900;2023-07-31T09:18:57;92809.88;;;20.83;100.00
9738;BME280;4908;47.446;13.900;2023-07-31T09:21:27;92808.69;;;21.06;100.00
9738;BME280;4908;47.446;13.900;2023-07-31T09:23:54;92800.91;;;21.26;100.00
9738;BME280;4908;47.446;13.900;2023-07-31T09:26:33;92805.81;;;21.31;100.00
9738;BME280;4908;47.446;13.900;2023-07-31T09:29:01;92810.78;;;21.32;100.00
9738;BME280;4908;47.446;13.900;2023-07-31T09:31:38;92802.53;;;21.45;100.00
9738;BME280;4908;47.446;13.900;2023-07-31T09:34:05;92796.78;;;21.52;100.00
9738;BME280;4908;47.446;13.900;2023-07-31T09:36:32;92796.72;;;21.74;100.00
9738;BME280;4908;47.446;13.900;2023-07-31T09:39:02;92801.34;;;21.95;100.00
9738;BME280;4908;47.446;13.900;2023-07-31T09:41:31;92790.59;;;22.09;100.00
9738;BME280;4908;47.446;13.900;2023-07-31T09:44:02;92797.53;;;21.92;100.00
9738;BME280;4908;47.446;13.900;2023-07-31T09:46:30;92792.72;;;22.14;100.00
9738;BME280;4908;47.446;13.900;2023-07-31T09:51:31;92793.06;;;22.44;100.00
9738;BME280;4908;47.446;13.900;2023-07-31T09:54:04;92786.69;;;22.28;100.00
9738;BME280;4908;47.446;13.900;2023-07-31T09:56:37;92788.75;;;21.88;100.00
9738;BME280;4908;47.446;13.900;2023-07-31T09:59:05;92776.25;;;21.69;100.00
9738;BME280;4908;47.446;13.900;2023-07-31T10:01:32;92778.03;;;21.63;100.00
9738;BME280;4908;47.446;13.900;2023-07-31T10:04:01;92773.28;;;21.85;100.00
9738;BME280;4908;47.446;13.900;2023-07-31T10:06:29;92769.38;;;21.95;100.00
9738;BME280;4908;47.446;13.900;2023-07-31T10:08:56;92760.88;;;21.93;100.00
9738;BME280;4908;47.446;13.900;2023-07-31T10:11:25;92755.44;;;22.02;100.00
9738;BME280;4908;47.446;13.900;2023-07-31T10:13:55;92755.44;;;22.11;100.00
9738;BME280;4908;47.446;13.900;2023-07-31T10:16:23;92752.25;;;22.31;100.00
9738;BME280;4908;47.446;13.900;2023-07-31T10:18:51;92750.28;;;22.41;100.00
9738;BME280;4908;47.446;13.900;2023-07-31T10:21:19;92743.28;;;22.49;100.00
9738;BME280;4908;47.446;13.900;2023-07-31T10:23:46;92738.16;;;22.42;100.00
9738;BME280;4908;47.446;13.900;2023-07-31T10:26:14;92734.06;;;22.19;100.00
9738;BME280;4908;47.446;13.900;2023-07-31T10:28:42;92732.41;;;22.21;100.00
9738;BME280;4908;47.446;13.900;2023-07-31T10:31:12;92726.03;;;22.15;100.00
9738;BME280;4908;47.446;13.900;2023-07-31T10:33:40;92719.66;;;22.09;100.00
9738;BME280;4908;47.446;13.900;2023-07-31T10:36:13;92722.22;;;22.58;100.00
9738;BME280;4908;47.446;13.900;2023-07-31T10:38:42;92708.22;;;22.92;100.00
9738;BME280;4908;47.446;13.900;2023-07-31T10:41:09;92706.56;;;23.28;98.65
9738;BME280;4908;47.446;13.900;2023-07-31T10:43:36;92700.88;;;23.40;89.06
9738;BME280;4908;47.446;13.900;2023-07-31T10:46:06;92701.94;;;23.43;93.10
9738;BME280;4908;47.446;13.900;2023-07-31T10:48:36;92705.25;;;23.47;81.47
9738;BME280;4908;47.446;13.900;2023-07-31T10:51:07;92691.78;;;23.43;88.06
9738;BME280;4908;47.446;13.900;2023-07-31T10:53:36;92692.59;;;23.26;91.61
9738;BME280;4908;47.446;13.900;2023-07-31T10:56:04;92694.53;;;23.34;96.69
9738;BME280;4908;47.446;13.900;2023-07-31T10:58:32;92694.56;;;23.81;100.00
9738;BME280;4908;47.446;13.900;2023-07-31T11:01:01;92691.41;;;23.97;90.15
9738;BME280;4908;47.446;13.900;2023-07-31T11:03:46;92686.56;;;23.92;93.40
9738;BME280;4908;47.446;13.900;2023-07-31T11:06:14;92681.06;;;24.01;82.89
9738;BME280;4908;47.446;13.900;2023-07-31T11:08:43;92687.44;;;23.98;93.98
9738;BME280;4908;47.446;13.900;2023-07-31T11:11:12;92676.09;;;24.15;85.23
9738;BME280;4908;47.446;13.900;2023-07-31T11:13:41;92680.38;;;24.45;79.32
9738;BME280;4908;47.446;13.900;2023-07-31T11:16:08;92676.06;;;24.67;78.78
9738;BME280;4908;47.446;13.900;2023-07-31T11:18:38;92669.66;;;24.85;74.85
9738;BME280;4908;47.446;13.900;2023-07-31T11:21:07;92673.06;;;24.95;78.64
9738;BME280;4908;47.446;13.900;2023-07-31T11:23:37;92670.00;;;25.07;88.78
9738;BME280;4908;47.446;13.900;2023-07-31T11:26:05;92670.97;;;25.04;79.64
9738;BME280;4908;47.446;13.900;2023-07-31T11:28:33;92671.69;;;25.19;69.22
9738;BME280;4908;47.446;13.900;2023-07-31T11:31:00;92667.88;;;25.31;78.78
9738;BME280;4908;47.446;13.900;2023-07-31T11:33:28;92660.16;;;25.15;67.88
9738;BME280;4908;47.446;13.900;2023-07-31T11:35:55;92653.47;;;25.02;67.55
9738;BME280;4908;47.446;13.900;2023-07-31T11:38:24;92662.41;;;25.31;71.76
9738;BME280;4908;47.446;13.900;2023-07-31T11:40:52;92651.03;;;25.53;73.32
9738;BME280;4908;47.446;13.900;2023-07-31T11:43:20;92653.91;;;25.29;60.46
9738;BME280;4908;47.446;13.900;2023-07-31T11:45:48;92640.75;;;25.33;66.20
9738;BME280;4908;47.446;13.900;2023-07-31T11:48:20;92643.75;;;25.70;67.76
9738;BME280;4908;47.446;13.900;2023-07-31T11:50:49;92633.91;;;26.04;54.96
9738;BME280;4908;47.446;13.900;2023-07-31T11:53:17;92633.41;;;26.00;59.02
9738;BME280;4908;47.446;13.900;2023-07-31T11:55:47;92630.09;;;26.16;59.56
9738;BME280;4908;47.446;13.900;2023-07-31T11:58:16;92622.34;;;26.40;62.13
9738;BME280;4908;47.446;13.900;2023-07-31T12:00:44;92620.63;;;25.76;55.07
9738;BME280;4908;47.446;13.900;2023-07-31T12:03:11;92611.72;;;25.61;57.90
9738;BME280;4908;47.446;13.900;2023-07-31T12:05:39;92620.88;;;25.99;62.39
9738;BME280;4908;47.446;13.900;2023-07-31T12:08:10;92613.50;;;25.85;55.18
9738;BME280;4908;47.446;13.900;2023-07-31T12:10:37;92608.84;;;26.11;59.50
9738;BME280;4908;47.446;13.900;2023-07-31T12:13:09;92609.22;;;26.49;68.68
9738;BME280;4908;47.446;13.900;2023-07-31T12:15:40;92602.72;;;26.78;56.81
9738;BME280;4908;47.446;13.900;2023-07-31T12:18:09;92608.88;;;26.68;50.74
9738;BME280;4908;47.446;13.900;2023-07-31T12:20:40;92600.47;;;26.51;57.57
9738;BME280;4908;47.446;13.900;2023-07-31T12:23:13;92590.25;;;26.77;59.78
9738;BME280;4908;47.446;13.900;2023-07-31T12:25:40;92586.94;;;27.04;51.98
9738;BME280;4908;47.446;13.900;2023-07-31T12:28:09;92587.47;;;27.45;57.16
9738;BME280;4908;47.446;13.900;2023-07-31T12:30:38;92583.13;;;26.96;49.88
9738;BME280;4908;47.446;13.900;2023-07-31T12:33:10;92578.06;;;26.58;57.28
9738;BME280;4908;47.446;13.900;2023-07-31T12:35:41;92572.75;;;27.17;59.01
9738;BME280;4908;47.446;13.900;2023-07-31T12:38:08;92560.09;;;27.30;49.44
9738;BME280;4908;47.446;13.900;2023-07-31T12:40:37;92561.00;;;27.53;51.98
9738;BME280;4908;47.446;13.900;2023-07-31T12:43:04;92553.84;;;27.89;52.05
9738;BME280;4908;47.446;13.900;2023-07-31T12:45:33;92553.59;;;27.92;51.25
9738;BME280;4908;47.446;13.900;2023-07-31T12:48:00;92538.41;;;28.08;50.39
9738;BME280;4908;47.446;13.900;2023-07-31T12:50:28;92536.66;;;28.10;48.72
9738;BME280;4908;47.446;13.900;2023-07-31T12:52:55;92531.31;;;27.85;46.83
9738;BME280;4908;47.446;13.900;2023-07-31T12:55:22;92543.56;;;27.78;48.97
9738;BME280;4908;47.446;13.900;2023-07-31T12:57:50;92534.41;;;27.98;49.49
9738;BME280;4908;47.446;13.900;2023-07-31T13:00:17;92529.41;;;28.24;45.97
9738;BME280;4908;47.446;13.900;2023-07-31T13:02:46;92536.31;;;27.81;43.05
9738;BME280;4908;47.446;13.900;2023-07-31T13:05:13;92522.84;;;26.87;47.34
9738;BME280;4908;47.446;13.900;2023-07-31T13:07:40;92514.50;;;27.18;47.10
9738;BME280;4908;47.446;13.900;2023-07-31T13:10:08;92511.22;;;27.57;49.98